sensor_id;sensor_type;location;lat;lon;timestamp;P1;durP1;ratioP1;P2;durP2;ratioP2
19251;SDS011;9760;50.944;5.304;2023-08-17T00:01:39;4.47;;;2.57;;
19251;SDS011;9760;50.944;5.304;2023-08-17T00:04:05;6.70;;;3.07;;
19251;SDS011;9760;50.944;5.304;2023-08-17T00:06:31;7.57;;;3.03;;
19251;SDS011;9760;50.944;5.304;2023-08-17T00:08:57;6.53;;;2.83;;
19251;SDS011;9760;50.944;5.304;2023-08-17T00:11:22;7.40;;;3.20;;
19251;SDS011;9760;50.944;5.304;2023-08-17T00:13:48;8.63;;;2.60;;
19251;SDS011;9760;50.944;5.304;2023-08-17T00:16:14;5.13;;;2.90;;
19251;SDS011;9760;50.944;5.304;2023-08-17T00:18:39;4.93;;;2.97;;
19251;SDS011;9760;50.944;5.304;2023-08-17T00:21:05;4.83;;;2.97;;
19251;SDS011;9760;50.944;5.304;2023-08-17T00:23:31;5.50;;;2.90;;
19251;SDS011;9760;50.944;5.304;2023-08-17T00:25:57;4.43;;;2.67;;
19251;SDS011;9760;50.944;5.304;2023-08-17T00:28:23;11.70;;;3.43;;
19251;SDS011;9760;50.944;5.304;2023-08-17T00:30:48;4.70;;;3.00;;
19251;SDS011;9760;50.944;5.304;2023-08-17T00:33:15;7.93;;;3.27;;
19251;SDS011;9760;50.944;5.304;2023-08-17T00:35:41;9.17;;;3.43;;
19251;SDS011;9760;50.944;5.304;2023-08-17T00:38:06;7.70;;;2.87;;
19251;SDS011;9760;50.944;5.304;2023-08-17T00:40:32;7.93;;;3.43;;
19251;SDS011;9760;50.944;5.304;2023-08-17T00:42:59;8.43;;;2.87;;
19251;SDS011;9760;50.944;5.304;2023-08-17T00:45:24;5.93;;;3.03;;
19251;SDS011;9760;50.944;5.304;2023-08-17T00:47:51;7.40;;;3.07;;
19251;SDS011;9760;50.944;5.304;2023-08-17T00:50:19;10.70;;;3.10;;
19251;SDS011;9760;50.944;5.304;2023-08-17T00:52:45;5.33;;;2.90;;
19251;SDS011;9760;50.944;5.304;2023-08-17T00:55:10;9.33;;;3.00;;
19251;SDS011;9760;50.944;5.304;2023-08-17T00:57:37;4.10;;;2.50;;
19251;SDS011;9760;50.944;5.304;2023-08-17T01:00:04;6.97;;;2.67;;
19251;SDS011;9760;50.944;5.304;2023-08-17T01:02:32;10.13;;;3.33;;
19251;SDS011;9760;50.944;5.304;2023-08-17T01:04:58;5.90;;;2.70;;
19251;SDS011;9760;50.944;5.304;2023-08-17T01:07:24;6.03;;;2.80;;
19251;SDS011;9760;50.944;5.304;2023-08-17T01:09:49;7.17;;;2.23;;
19251;SDS011;9760;50.944;5.304;2023-08-17T01:12:28;11.57;;;2.70;;
19251;SDS011;9760;50.944;5.304;2023-08-17T01:14:59;14.60;;;3.07;;
19251;SDS011;9760;50.944;5.304;2023-08-17T01:17:33;5.70;;;2.50;;
19251;SDS011;9760;50.944;5.304;2023-08-17T01:20:09;4.33;;;2.83;;
19251;SDS011;9760;50.944;5.304;2023-08-17T01:22:37;7.63;;;2.63;;
19251;SDS011;9760;50.944;5.304;2023-08-17T01:25:10;6.87;;;2.57;;
19251;SDS011;9760;50.944;5.304;2023-08-17T01:27:43;4.53;;;2.33;;
19251;SDS011;9760;50.944;5.304;2023-08-17T01:30:10;11.20;;;2.83;;
19251;SDS011;9760;50.944;5.304;2023-08-17T01:32:48;3.87;;;2.50;;
19251;SDS011;9760;50.944;5.304;2023-08-17T01:38:09;4.63;;;2.80;;
19251;SDS011;9760;50.944;5.304;2023-08-17T01:40:38;7.83;;;2.57;;
19251;SDS011;9760;50.944;5.304;2023-08-17T01:43:04;4.63;;;2.70;;
19251;SDS011;9760;50.944;5.304;2023-08-17T01:45:30;8.00;;;2.70;;
19251;SDS011;9760;50.944;5.304;2023-08-17T01:47:56;4.37;;;2.53;;
19251;SDS011;9760;50.944;5.304;2023-08-17T01:50:22;5.73;;;2.83;;
19251;SDS011;9760;50.944;5.304;2023-08-17T01:52:47;9.30;;;2.60;;
19251;SDS011;9760;50.944;5.304;2023-08-17T01:55:15;6.87;;;2.90;;
19251;SDS011;9760;50.944;5.304;2023-08-17T01:57:41;5.83;;;2.47;;
19251;SDS011;9760;50.944;5.304;2023-08-17T02:00:06;5.67;;;2.47;;
19251;SDS011;9760;50.944;5.304;2023-08-17T02:02:35;7.30;;;3.03;;
19251;SDS011;9760;50.944;5.304;2023-08-17T02:05:01;8.47;;;3.20;;
19251;SDS011;9760;50.944;5.304;2023-08-17T02:07:27;10.17;;;2.70;;
19251;SDS011;9760;50.944;5.304;2023-08-17T02:09:53;8.27;;;2.80;;
19251;SDS011;9760;50.944;5.304;2023-08-17T02:12:19;6.03;;;2.60;;
19251;SDS011;9760;50.944;5.304;2023-08-17T02:14:45;10.67;;;2.80;;
19251;SDS011;9760;50.944;5.304;2023-08-17T02:17:10;6.37;;;2.60;;
19251;SDS011;9760;50.944;5.304;2023-08-17T02:19:36;5.70;;;2.70;;
19251;SDS011;9760;50.944;5.304;2023-08-17T02:22:02;4.23;;;2.50;;
19251;SDS011;9760;50.944;5.304;2023-08-17T02:24:27;8.27;;;2.80;;
19251;SDS011;9760;50.944;5.304;2023-08-17T02:26:53;7.80;;;2.73;;
19251;SDS011;9760;50.944;5.304;2023-08-17T02:29:19;7.03;;;2.50;;
19251;SDS011;9760;50.944;5.304;2023-08-17T02:31:44;7.00;;;2.63;;
19251;SDS011;9760;50.944;5.304;2023-08-17T02:34:10;5.30;;;2.20;;
19251;SDS011;9760;50.944;5.304;2023-08-17T02:36:36;4.83;;;2.63;;
19251;SDS011;9760;50.944;5.304;2023-08-17T02:39:02;4.83;;;2.50;;
19251;SDS011;9760;50.944;5.304;2023-08-17T02:41:28;5.83;;;2.53;;
19251;SDS011;9760;50.944;5.304;2023-08-17T02:43:55;6.30;;;2.60;;
19251;SDS011;9760;50.944;5.304;2023-08-17T02:46:21;5.97;;;2.80;;
19251;SDS011;9760;50.944;5.304;2023-08-17T02:48:46;5.73;;;2.53;;
19251;SDS011;9760;50.944;5.304;2023-08-17T02:51:13;4.43;;;2.77;;
19251;SDS011;9760;50.944;5.304;2023-08-17T02:53:38;8.27;;;2.97;;
19251;SDS011;9760;50.944;5.304;2023-08-17T02:56:06;9.77;;;2.93;;
19251;SDS011;9760;50.944;5.304;2023-08-17T02:58:31;7.63;;;2.90;;
19251;SDS011;9760;50.944;5.304;2023-08-17T03:00:57;6.33;;;2.93;;
19251;SDS011;9760;50.944;5.304;2023-08-17T03:03:23;8.93;;;2.80;;
19251;SDS011;9760;50.944;5.304;2023-08-17T03:05:48;11.53;;;2.37;;
19251;SDS011;9760;50.944;5.304;2023-08-17T03:08:14;11.47;;;2.73;;
19251;SDS011;9760;50.944;5.304;2023-08-17T03:10:40;5.83;;;2.40;;
19251;SDS011;9760;50.944;5.304;2023-08-17T03:13:05;8.77;;;3.27;;
19251;SDS011;9760;50.944;5.304;2023-08-17T03:15:31;8.10;;;2.77;;
19251;SDS011;9760;50.944;5.304;2023-08-17T03:17:56;8.07;;;2.83;;
19251;SDS011;9760;50.944;5.304;2023-08-17T03:20:22;12.83;;;2.63;;
19251;SDS011;9760;50.944;5.304;2023-08-17T03:22:48;8.57;;;3.30;;
19251;SDS011;9760;50.944;5.304;2023-08-17T03:25:13;5.67;;;2.80;;
19251;SDS011;9760;50.944;5.304;2023-08-17T03:27:39;5.57;;;2.77;;
19251;SDS011;9760;50.944;5.304;2023-08-17T03:30:05;5.63;;;2.80;;
19251;SDS011;9760;50.944;5.304;2023-08-17T03:32:31;6.33;;;3.33;;
19251;SDS011;9760;50.944;5.304;2023-08-17T03:34:56;13.33;;;3.40;;
19251;SDS011;9760;50.944;5.304;2023-08-17T03:37:22;7.20;;;3.07;;
19251;SDS011;9760;50.944;5.304;2023-08-17T03:39:48;4.07;;;2.80;;
19251;SDS011;9760;50.944;5.304;2023-08-17T03:42:13;13.33;;;3.10;;
19251;SDS011;9760;50.944;5.304;2023-08-17T03:44:39;11.43;;;3.90;;
19251;SDS011;9760;50.944;5.304;2023-08-17T03:47:05;6.77;;;3.10;;
19251;SDS011;9760;50.944;5.304;2023-08-17T03:49:30;7.00;;;3.03;;
19251;SDS011;9760;50.944;5.304;2023-08-17T03:51:56;6.10;;;3.30;;
19251;SDS011;9760;50.944;5.304;2023-08-17T03:54:21;9.23;;;3.60;;
19251;SDS011;9760;50.944;5.304;2023-08-17T03:56:47;10.87;;;3.63;;
19251;SDS011;9760;50.944;5.304;2023-08-17T03:59:13;6.53;;;3.90;;
19251;SDS011;9760;50.944;5.304;2023-08-17T04:01:39;6.40;;;3.70;;
19251;SDS011;9760;50.944;5.304;2023-08-17T04:04:05;9.93;;;3.50;;
19251;SDS011;9760;50.944;5.304;2023-08-17T04:06:30;8.90;;;3.90;;
19251;SDS011;9760;50.944;5.304;2023-08-17T04:08:56;7.90;;;4.07;;
19251;SDS011;9760;50.944;5.304;2023-08-17T04:11:22;8.20;;;3.87;;
19251;SDS011;9760;50.944;5.304;2023-08-17T04:13:47;10.20;;;3.97;;
19251;SDS011;9760;50.944;5.304;2023-08-17T04:16:13;13.03;;;3.73;;
19251;SDS011;9760;50.944;5.304;2023-08-17T04:18:39;8.27;;;3.63;;
19251;SDS011;9760;50.944;5.304;2023-08-17T04:21:04;6.53;;;3.07;;
19251;SDS011;9760;50.944;5.304;2023-08-17T04:23:30;8.30;;;3.23;;
19251;SDS011;9760;50.944;5.304;2023-08-17T04:25:55;6.57;;;3.40;;
19251;SDS011;9760;50.944;5.304;2023-08-17T04:28:21;9.33;;;3.83;;
19251;SDS011;9760;50.944;5.304;2023-08-17T04:30:47;10.33;;;3.10;;
19251;SDS011;9760;50.944;5.304;2023-08-17T04:33:12;6.40;;;3.67;;
19251;SDS011;9760;50.944;5.304;2023-08-17T04:35:38;8.90;;;3.40;;
19251;SDS011;9760;50.944;5.304;2023-08-17T04:38:04;8.47;;;3.43;;
19251;SDS011;9760;50.944;5.304;2023-08-17T04:40:30;5.80;;;3.27;;
19251;SDS011;9760;50.944;5.304;2023-08-17T04:42:57;10.37;;;3.90;;
19251;SDS011;9760;50.944;5.304;2023-08-17T04:45:22;6.83;;;3.57;;
19251;SDS011;9760;50.944;5.304;2023-08-17T04:47:49;10.53;;;4.40;;
19251;SDS011;9760;50.944;5.304;2023-08-17T04:50:15;8.87;;;4.13;;
19251;SDS011;9760;50.944;5.304;2023-08-17T04:52:44;10.10;;;4.10;;
19251;SDS011;9760;50.944;5.304;2023-08-17T04:55:10;13.63;;;4.60;;
19251;SDS011;9760;50.944;5.304;2023-08-17T04:57:36;8.63;;;4.17;;
19251;SDS011;9760;50.944;5.304;2023-08-17T05:00:02;10.03;;;3.70;;
19251;SDS011;9760;50.944;5.304;2023-08-17T05:02:28;8.43;;;3.80;;
19251;SDS011;9760;50.944;5.304;2023-08-17T05:04:54;9.43;;;4.17;;
19251;SDS011;9760;50.944;5.304;2023-08-17T05:07:20;5.30;;;3.27;;
19251;SDS011;9760;50.944;5.304;2023-08-17T05:09:45;9.73;;;4.03;;
19251;SDS011;9760;50.944;5.304;2023-08-17T05:12:11;11.50;;;4.23;;
19251;SDS011;9760;50.944;5.304;2023-08-17T05:14:37;10.33;;;4.10;;
19251;SDS011;9760;50.944;5.304;2023-08-17T05:17:02;10.83;;;3.60;;
19251;SDS011;9760;50.944;5.304;2023-08-17T05:19:28;6.60;;;3.30;;
19251;SDS011;9760;50.944;5.304;2023-08-17T05:21:53;5.87;;;3.77;;
19251;SDS011;9760;50.944;5.304;2023-08-17T05:24:19;11.43;;;4.10;;
19251;SDS011;9760;50.944;5.304;2023-08-17T05:26:45;12.13;;;3.70;;
19251;SDS011;9760;50.944;5.304;2023-08-17T05:29:11;7.33;;;3.37;;
19251;SDS011;9760;50.944;5.304;2023-08-17T05:31:36;5.57;;;3.10;;
19251;SDS011;9760;50.944;5.304;2023-08-17T05:34:02;7.37;;;3.13;;
19251;SDS011;9760;50.944;5.304;2023-08-17T05:36:28;8.57;;;3.30;;
19251;SDS011;9760;50.944;5.304;2023-08-17T05:38:53;6.97;;;3.63;;
19251;SDS011;9760;50.944;5.304;2023-08-17T05:41:19;10.30;;;3.80;;
19251;SDS011;9760;50.944;5.304;2023-08-17T05:43:45;10.57;;;4.20;;
19251;SDS011;9760;50.944;5.304;2023-08-17T05:46:10;8.40;;;4.13;;
19251;SDS011;9760;50.944;5.304;2023-08-17T05:48:36;8.43;;;3.60;;
19251;SDS011;9760;50.944;5.304;2023-08-17T05:51:02;10.43;;;4.40;;
19251;SDS011;9760;50.944;5.304;2023-08-17T05:53:27;15.13;;;4.17;;
19251;SDS011;9760;50.944;5.304;2023-08-17T05:55:53;4.77;;;3.70;;
19251;SDS011;9760;50.944;5.304;2023-08-17T05:58:19;10.20;;;4.40;;
19251;SDS011;9760;50.944;5.304;2023-08-17T06:00:45;10.50;;;4.07;;
19251;SDS011;9760;50.944;5.304;2023-08-17T06:03:10;7.13;;;3.67;;
19251;SDS011;9760;50.944;5.304;2023-08-17T06:05:36;10.73;;;3.90;;
19251;SDS011;9760;50.944;5.304;2023-08-17T06:08:02;10.70;;;4.10;;
19251;SDS011;9760;50.944;5.304;2023-08-17T06:10:28;6.27;;;3.37;;
19251;SDS011;9760;50.944;5.304;2023-08-17T06:12:54;12.40;;;3.90;;
19251;SDS011;9760;50.944;5.304;2023-08-17T06:15:20;7.50;;;3.97;;
19251;SDS011;9760;50.944;5.304;2023-08-17T06:17:46;11.97;;;4.53;;
19251;SDS011;9760;50.944;5.304;2023-08-17T06:20:14;12.20;;;3.73;;
19251;SDS011;9760;50.944;5.304;2023-08-17T06:22:41;14.80;;;4.00;;
19251;SDS011;9760;50.944;5.304;2023-08-17T06:25:07;9.47;;;4.30;;
19251;SDS011;9760;50.944;5.304;2023-08-17T06:27:33;15.97;;;4.47;;
19251;SDS011;9760;50.944;5.304;2023-08-17T06:29:59;9.57;;;3.30;;
19251;SDS011;9760;50.944;5.304;2023-08-17T06:32:25;7.50;;;3.43;;
19251;SDS011;9760;50.944;5.304;2023-08-17T06:34:51;10.30;;;3.53;;
19251;SDS011;9760;50.944;5.304;2023-08-17T06:37:19;7.37;;;3.50;;
19251;SDS011;9760;50.944;5.304;2023-08-17T06:39:44;13.80;;;4.60;;
19251;SDS011;9760;50.944;5.304;2023-08-17T06:42:10;13.10;;;6.00;;
19251;SDS011;9760;50.944;5.304;2023-08-17T06:44:36;22.20;;;6.30;;
19251;SDS011;9760;50.944;5.304;2023-08-17T06:47:02;23.60;;;6.40;;
19251;SDS011;9760;50.944;5.304;2023-08-17T06:49:28;15.93;;;6.23;;
19251;SDS011;9760;50.944;5.304;2023-08-17T06:51:53;15.53;;;6.20;;
19251;SDS011;9760;50.944;5.304;2023-08-17T06:54:19;18.47;;;7.17;;
19251;SDS011;9760;50.944;5.304;2023-08-17T06:56:45;16.40;;;6.20;;
19251;SDS011;9760;50.944;5.304;2023-08-17T06:59:10;19.10;;;6.70;;
19251;SDS011;9760;50.944;5.304;2023-08-17T07:01:36;19.03;;;6.67;;
19251;SDS011;9760;50.944;5.304;2023-08-17T07:04:02;17.87;;;7.20;;
19251;SDS011;9760;50.944;5.304;2023-08-17T07:06:27;16.97;;;7.50;;
19251;SDS011;9760;50.944;5.304;2023-08-17T07:08:54;19.97;;;8.57;;
19251;SDS011;9760;50.944;5.304;2023-08-17T07:11:19;24.23;;;9.00;;
19251;SDS011;9760;50.944;5.304;2023-08-17T07:13:45;25.07;;;9.50;;
19251;SDS011;9760;50.944;5.304;2023-08-17T07:16:11;20.03;;;9.40;;
19251;SDS011;9760;50.944;5.304;2023-08-17T07:18:37;23.63;;;11.17;;
19251;SDS011;9760;50.944;5.304;2023-08-17T07:21:03;26.47;;;10.77;;
19251;SDS011;9760;50.944;5.304;2023-08-17T07:23:29;27.67;;;10.03;;
19251;SDS011;9760;50.944;5.304;2023-08-17T07:25:54;22.30;;;10.10;;
19251;SDS011;9760;50.944;5.304;2023-08-17T07:28:20;24.53;;;9.93;;
19251;SDS011;9760;50.944;5.304;2023-08-17T07:30:45;29.20;;;9.67;;
19251;SDS011;9760;50.944;5.304;2023-08-17T07:33:11;23.77;;;10.87;;
19251;SDS011;9760;50.944;5.304;2023-08-17T07:35:37;30.10;;;10.93;;
19251;SDS011;9760;50.944;5.304;2023-08-17T07:38:02;24.63;;;10.60;;
19251;SDS011;9760;50.944;5.304;2023-08-17T07:40:28;23.70;;;10.37;;
19251;SDS011;9760;50.944;5.304;2023-08-17T07:42:54;24.47;;;9.67;;
19251;SDS011;9760;50.944;5.304;2023-08-17T07:45:19;22.70;;;9.67;;
19251;SDS011;9760;50.944;5.304;2023-08-17T07:47:45;25.10;;;10.37;;
19251;SDS011;9760;50.944;5.304;2023-08-17T07:50:11;28.67;;;9.83;;
19251;SDS011;9760;50.944;5.304;2023-08-17T07:52:36;27.77;;;9.00;;
19251;SDS011;9760;50.944;5.304;2023-08-17T07:55:03;22.90;;;9.73;;
19251;SDS011;9760;50.944;5.304;2023-08-17T07:57:30;27.37;;;9.50;;
19251;SDS011;9760;50.944;5.304;2023-08-17T07:59:55;21.33;;;9.17;;
19251;SDS011;9760;50.944;5.304;2023-08-17T08:02:21;17.67;;;9.00;;
19251;SDS011;9760;50.944;5.304;2023-08-17T08:04:47;19.23;;;9.23;;
19251;SDS011;9760;50.944;5.304;2023-08-17T08:07:12;22.43;;;8.90;;
19251;SDS011;9760;50.944;5.304;2023-08-17T08:09:41;25.33;;;9.87;;
19251;SDS011;9760;50.944;5.304;2023-08-17T08:12:06;23.43;;;9.70;;
19251;SDS011;9760;50.944;5.304;2023-08-17T08:14:33;19.17;;;9.07;;
19251;SDS011;9760;50.944;5.304;2023-08-17T08:16:59;23.63;;;9.67;;
19251;SDS011;9760;50.944;5.304;2023-08-17T08:19:25;24.67;;;9.30;;
19251;SDS011;9760;50.944;5.304;2023-08-17T08:21:50;21.13;;;9.80;;
19251;SDS011;9760;50.944;5.304;2023-08-17T08:24:16;25.47;;;9.43;;
19251;SDS011;9760;50.944;5.304;2023-08-17T08:26:42;19.23;;;9.40;;
19251;SDS011;9760;50.944;5.304;2023-08-17T08:29:07;20.73;;;8.70;;
19251;SDS011;9760;50.944;5.304;2023-08-17T08:31:33;23.43;;;9.40;;
19251;SDS011;9760;50.944;5.304;2023-08-17T08:33:59;17.67;;;8.40;;
19251;SDS011;9760;50.944;5.304;2023-08-17T08:36:24;22.23;;;9.43;;
19251;SDS011;9760;50.944;5.304;2023-08-17T08:38:50;21.67;;;9.20;;
19251;SDS011;9760;50.944;5.304;2023-08-17T08:41:16;20.97;;;10.10;;
19251;SDS011;9760;50.944;5.304;2023-08-17T08:43:42;23.30;;;10.77;;
19251;SDS011;9760;50.944;5.304;2023-08-17T08:46:09;27.20;;;11.73;;
19251;SDS011;9760;50.944;5.304;2023-08-17T08:48:35;25.67;;;12.40;;
19251;SDS011;9760;50.944;5.304;2023-08-17T08:51:03;34.87;;;13.90;;
19251;SDS011;9760;50.944;5.304;2023-08-17T08:53:38;31.77;;;12.97;;
19251;SDS011;9760;50.944;5.304;2023-08-17T08:56:11;31.90;;;13.83;;
19251;SDS011;9760;50.944;5.304;2023-08-17T08:58:40;32.20;;;13.80;;
19251;SDS011;9760;50.944;5.304;2023-08-17T09:01:07;34.17;;;14.70;;
19251;SDS011;9760;50.944;5.304;2023-08-17T09:03:35;32.47;;;14.30;;
19251;SDS011;9760;50.944;5.304;2023-08-17T09:06:02;25.93;;;13.63;;
19251;SDS011;9760;50.944;5.304;2023-08-17T09:08:29;26.40;;;13.83;;
19251;SDS011;9760;50.944;5.304;2023-08-17T09:10:55;20.50;;;12.90;;
19251;SDS011;9760;50.944;5.304;2023-08-17T09:13:21;22.17;;;12.90;;
19251;SDS011;9760;50.944;5.304;2023-08-17T09:15:47;24.27;;;13.23;;
19251;SDS011;9760;50.944;5.304;2023-08-17T09:18:12;22.73;;;13.33;;
19251;SDS011;9760;50.944;5.304;2023-08-17T09:20:45;27.97;;;14.30;;
19251;SDS011;9760;50.944;5.304;2023-08-17T09:25:42;27.40;;;13.33;;
19251;SDS011;9760;50.944;5.304;2023-08-17T09:28:12;26.03;;;13.10;;
19251;SDS011;9760;50.944;5.304;2023-08-17T09:31:01;22.37;;;13.43;;
19251;SDS011;9760;50.944;5.304;2023-08-17T09:33:30;23.87;;;13.67;;
19251;SDS011;9760;50.944;5.304;2023-08-17T09:35:57;22.50;;;13.30;;
19251;SDS011;9760;50.944;5.304;2023-08-17T09:38:24;22.60;;;12.67;;
19251;SDS011;9760;50.944;5.304;2023-08-17T09:40:50;23.93;;;13.80;;
19251;SDS011;9760;50.944;5.304;2023-08-17T09:43:17;18.43;;;12.73;;
19251;SDS011;9760;50.944;5.304;2023-08-17T09:45:45;28.07;;;14.57;;
19251;SDS011;9760;50.944;5.304;2023-08-17T09:48:14;24.90;;;15.17;;
19251;SDS011;9760;50.944;5.304;2023-08-17T09:50:42;29.53;;;14.43;;
19251;SDS011;9760;50.944;5.304;2023-08-17T09:53:16;26.87;;;15.83;;
19251;SDS011;9760;50.944;5.304;2023-08-17T09:55:42;23.47;;;14.23;;
19251;SDS011;9760;50.944;5.304;2023-08-17T09:58:09;26.23;;;14.90;;
19251;SDS011;9760;50.944;5.304;2023-08-17T10:00:39;31.23;;;16.13;;
19251;SDS011;9760;50.944;5.304;2023-08-17T10:03:09;32.33;;;16.70;;
19251;SDS011;9760;50.944;5.304;2023-08-17T10:05:38;34.17;;;15.27;;
19251;SDS011;9760;50.944;5.304;2023-08-17T10:08:07;28.93;;;15.43;;
19251;SDS011;9760;50.944;5.304;2023-08-17T10:10:35;34.33;;;15.80;;
19251;SDS011;9760;50.944;5.304;2023-08-17T10:15:37;28.37;;;16.20;;
19251;SDS011;9760;50.944;5.304;2023-08-17T10:18:11;30.20;;;16.13;;
19251;SDS011;9760;50.944;5.304;2023-08-17T10:21:05;33.60;;;17.47;;
19251;SDS011;9760;50.944;5.304;2023-08-17T10:23:38;29.43;;;15.93;;
19251;SDS011;9760;50.944;5.304;2023-08-17T10:26:04;30.37;;;16.00;;
19251;SDS011;9760;50.944;5.304;2023-08-17T10:28:33;28.33;;;15.23;;
19251;SDS011;9760;50.944;5.304;2023-08-17T10:30:59;34.40;;;16.13;;
19251;SDS011;9760;50.944;5.304;2023-08-17T10:33:25;26.30;;;14.80;;
19251;SDS011;9760;50.944;5.304;2023-08-17T10:35:52;29.63;;;14.47;;
19251;SDS011;9760;50.944;5.304;2023-08-17T10:38:19;27.03;;;14.37;;
19251;SDS011;9760;50.944;5.304;2023-08-17T10:40:44;23.40;;;12.73;;
19251;SDS011;9760;50.944;5.304;2023-08-17T10:43:33;24.03;;;11.83;;
19251;SDS011;9760;50.944;5.304;2023-08-17T10:46:20;24.00;;;11.53;;
19251;SDS011;9760;50.944;5.304;2023-08-17T10:48:45;18.90;;;11.67;;
19251;SDS011;9760;50.944;5.304;2023-08-17T10:51:11;23.67;;;12.03;;
19251;SDS011;9760;50.944;5.304;2023-08-17T10:53:42;27.67;;;12.53;;
19251;SDS011;9760;50.944;5.304;2023-08-17T10:56:11;23.03;;;12.77;;
19251;SDS011;9760;50.944;5.304;2023-08-17T10:58:38;22.53;;;12.27;;
19251;SDS011;9760;50.944;5.304;2023-08-17T11:01:06;26.60;;;13.20;;
19251;SDS011;9760;50.944;5.304;2023-08-17T11:03:32;29.40;;;13.90;;
19251;SDS011;9760;50.944;5.304;2023-08-17T11:05:58;25.63;;;14.40;;
19251;SDS011;9760;50.944;5.304;2023-08-17T11:08:52;27.63;;;14.23;;
19251;SDS011;9760;50.944;5.304;2023-08-17T11:11:22;29.30;;;14.73;;
19251;SDS011;9760;50.944;5.304;2023-08-17T11:13:48;28.83;;;14.43;;
19251;SDS011;9760;50.944;5.304;2023-08-17T11:16:15;26.30;;;15.80;;
19251;SDS011;9760;50.944;5.304;2023-08-17T11:18:44;26.93;;;14.90;;
19251;SDS011;9760;50.944;5.304;2023-08-17T11:21:10;28.33;;;14.10;;
19251;SDS011;9760;50.944;5.304;2023-08-17T11:23:36;24.27;;;14.03;;
19251;SDS011;9760;50.944;5.304;2023-08-17T11:26:03;26.20;;;14.23;;
19251;SDS011;9760;50.944;5.304;2023-08-17T11:28:30;29.93;;;16.27;;
19251;SDS011;9760;50.944;5.304;2023-08-17T11:31:04;31.23;;;14.50;;
19251;SDS011;9760;50.944;5.304;2023-08-17T11:33:32;27.23;;;13.97;;
19251;SDS011;9760;50.944;5.304;2023-08-17T11:35:58;28.57;;;14.60;;
19251;SDS011;9760;50.944;5.304;2023-08-17T11:38:26;26.77;;;14.37;;
19251;SDS011;9760;50.944;5.304;2023-08-17T11:40:55;30.63;;;13.93;;
19251;SDS011;9760;50.944;5.304;2023-08-17T11:43:23;23.33;;;14.07;;
19251;SDS011;9760;50.944;5.304;2023-08-17T11:45:49;27.30;;;13.93;;
19251;SDS011;9760;50.944;5.304;2023-08-17T11:48:18;25.67;;;14.00;;
19251;SDS011;9760;50.944;5.304;2023-08-17T11:50:44;25.23;;;13.10;;
19251;SDS011;9760;50.944;5.304;2023-08-17T11:53:10;28.80;;;14.77;;
19251;SDS011;9760;50.944;5.304;2023-08-17T11:55:36;27.73;;;13.80;;
19251;SDS011;9760;50.944;5.304;2023-08-17T11:58:02;27.33;;;14.60;;
19251;SDS011;9760;50.944;5.304;2023-08-17T12:00:34;31.83;;;15.27;;
19251;SDS011;9760;50.944;5.304;2023-08-17T12:03:02;31.20;;;17.17;;
19251;SDS011;9760;50.944;5.304;2023-08-17T12:05:30;29.30;;;15.03;;
19251;SDS011;9760;50.944;5.304;2023-08-17T12:07:57;34.73;;;16.90;;
19251;SDS011;9760;50.944;5.304;2023-08-17T12:10:27;32.33;;;16.20;;
19251;SDS011;9760;50.944;5.304;2023-08-17T12:12:56;30.97;;;16.93;;
19251;SDS011;9760;50.944;5.304;2023-08-17T12:15:25;29.33;;;15.30;;
19251;SDS011;9760;50.944;5.304;2023-08-17T12:17:58;31.20;;;16.13;;
19251;SDS011;9760;50.944;5.304;2023-08-17T12:20:24;28.73;;;16.60;;
19251;SDS011;9760;50.944;5.304;2023-08-17T12:22:50;36.67;;;18.43;;
19251;SDS011;9760;50.944;5.304;2023-08-17T12:25:16;45.20;;;18.43;;
19251;SDS011;9760;50.944;5.304;2023-08-17T12:27:46;27.23;;;16.07;;
19251;SDS011;9760;50.944;5.304;2023-08-17T12:30:13;26.33;;;15.10;;
19251;SDS011;9760;50.944;5.304;2023-08-17T12:32:50;32.80;;;15.93;;
19251;SDS011;9760;50.944;5.304;2023-08-17T12:35:16;30.23;;;17.37;;
19251;SDS011;9760;50.944;5.304;2023-08-17T12:37:41;35.23;;;14.53;;
19251;SDS011;9760;50.944;5.304;2023-08-17T12:40:07;29.53;;;14.80;;
19251;SDS011;9760;50.944;5.304;2023-08-17T12:42:34;26.80;;;13.40;;
19251;SDS011;9760;50.944;5.304;2023-08-17T12:45:00;27.23;;;13.67;;
19251;SDS011;9760;50.944;5.304;2023-08-17T12:47:26;24.80;;;13.30;;
19251;SDS011;9760;50.944;5.304;2023-08-17T12:49:51;25.73;;;14.30;;
19251;SDS011;9760;50.944;5.304;2023-08-17T12:52:17;26.57;;;14.50;;
19251;SDS011;9760;50.944;5.304;2023-08-17T12:54:43;22.67;;;14.37;;
19251;SDS011;9760;50.944;5.304;2023-08-17T12:57:08;23.40;;;14.77;;
19251;SDS011;9760;50.944;5.304;2023-08-17T12:59:34;27.40;;;13.93;;
19251;SDS011;9760;50.944;5.304;2023-08-17T13:02:00;23.30;;;13.23;;
19251;SDS011;9760;50.944;5.304;2023-08-17T13:04:25;22.23;;;12.53;;
19251;SDS011;9760;50.944;5.304;2023-08-17T13:06:51;22.63;;;11.97;;
19251;SDS011;9760;50.944;5.304;2023-08-17T13:09:17;25.13;;;11.33;;
19251;SDS011;9760;50.944;5.304;2023-08-17T13:11:44;27.77;;;12.07;;
19251;SDS011;9760;50.944;5.304;2023-08-17T13:14:11;22.70;;;11.47;;
19251;SDS011;9760;50.944;5.304;2023-08-17T13:16:37;22.93;;;12.57;;
19251;SDS011;9760;50.944;5.304;2023-08-17T13:19:02;23.23;;;11.23;;
19251;SDS011;9760;50.944;5.304;2023-08-17T13:21:28;19.70;;;11.33;;
19251;SDS011;9760;50.944;5.304;2023-08-17T13:23:54;25.33;;;11.20;;
19251;SDS011;9760;50.944;5.304;2023-08-17T13:26:21;21.70;;;11.80;;
19251;SDS011;9760;50.944;5.304;2023-08-17T13:28:47;24.77;;;11.20;;
19251;SDS011;9760;50.944;5.304;2023-08-17T13:31:13;22.50;;;11.23;;
19251;SDS011;9760;50.944;5.304;2023-08-17T13:33:38;20.37;;;10.80;;
19251;SDS011;9760;50.944;5.304;2023-08-17T13:36:04;23.20;;;11.13;;
19251;SDS011;9760;50.944;5.304;2023-08-17T13:38:30;25.07;;;11.47;;
19251;SDS011;9760;50.944;5.304;2023-08-17T13:40:56;29.47;;;11.80;;
19251;SDS011;9760;50.944;5.304;2023-08-17T13:43:22;26.73;;;11.57;;
19251;SDS011;9760;50.944;5.304;2023-08-17T13:45:48;23.77;;;12.60;;
19251;SDS011;9760;50.944;5.304;2023-08-17T13:48:13;26.33;;;12.40;;
19251;SDS011;9760;50.944;5.304;2023-08-17T13:50:39;22.47;;;11.40;;
19251;SDS011;9760;50.944;5.304;2023-08-17T13:53:05;29.57;;;11.93;;
19251;SDS011;9760;50.944;5.304;2023-08-17T13:55:31;23.37;;;11.33;;
19251;SDS011;9760;50.944;5.304;2023-08-17T13:57:57;20.73;;;11.70;;
19251;SDS011;9760;50.944;5.304;2023-08-17T14:00:23;27.93;;;12.30;;
19251;SDS011;9760;50.944;5.304;2023-08-17T14:02:50;23.70;;;12.40;;
19251;SDS011;9760;50.944;5.304;2023-08-17T14:05:16;28.10;;;13.50;;
19251;SDS011;9760;50.944;5.304;2023-08-17T14:07:42;22.27;;;12.40;;
19251;SDS011;9760;50.944;5.304;2023-08-17T14:10:07;27.83;;;12.43;;
19251;SDS011;9760;50.944;5.304;2023-08-17T14:12:33;23.47;;;12.03;;
19251;SDS011;9760;50.944;5.304;2023-08-17T14:14:59;24.97;;;12.20;;
19251;SDS011;9760;50.944;5.304;2023-08-17T14:17:25;25.50;;;12.20;;
19251;SDS011;9760;50.944;5.304;2023-08-17T14:19:51;25.20;;;13.20;;
19251;SDS011;9760;50.944;5.304;2023-08-17T14:22:16;18.70;;;10.73;;
19251;SDS011;9760;50.944;5.304;2023-08-17T14:24:42;21.10;;;12.90;;
19251;SDS011;9760;50.944;5.304;2023-08-17T14:27:08;23.60;;;12.90;;
19251;SDS011;9760;50.944;5.304;2023-08-17T14:29:33;20.67;;;13.03;;
19251;SDS011;9760;50.944;5.304;2023-08-17T14:31:59;31.03;;;15.07;;
19251;SDS011;9760;50.944;5.304;2023-08-17T14:34:25;23.73;;;14.03;;
19251;SDS011;9760;50.944;5.304;2023-08-17T14:36:51;29.80;;;14.87;;
19251;SDS011;9760;50.944;5.304;2023-08-17T14:39:17;27.37;;;14.10;;
19251;SDS011;9760;50.944;5.304;2023-08-17T14:41:42;26.63;;;13.90;;
19251;SDS011;9760;50.944;5.304;2023-08-17T14:44:08;26.77;;;14.53;;
19251;SDS011;9760;50.944;5.304;2023-08-17T14:46:33;33.93;;;15.87;;
19251;SDS011;9760;50.944;5.304;2023-08-17T14:49:00;28.20;;;15.00;;
19251;SDS011;9760;50.944;5.304;2023-08-17T14:51:25;24.53;;;14.10;;